Time;durP1;ratioP1;P1;durP2;ratioP2;P2;SDS_P1;SDS_P2;PMS_P1;PMS_P2;Temp;Humidity;BMP_temperature;BMP_pressure;BME280_temperature;BME280_humidity;BME280_pressure;Samples;Min_cycle;Max_cycle;Signal;HPM_P1;HPM_P2
2021/06/15 00:00:41;;;;;;;1.75;0.00;;;24.50;50.90;;;;;;4978726;28;20034;-87
2021/06/15 00:03:07;;;;;;;0.20;0.00;;;24.40;51.50;;;;;;4986450;28;20018;-86
2021/06/15 00:05:33;;;;;;;7.15;0.38;;;24.40;50.90;;;;;;4975754;28;20043;-86
2021/06/15 00:07:59;;;;;;;0.30;0.10;;;24.40;50.90;;;;;;4959462;28;20043;-86
2021/06/15 00:10:25;;;;;;;0.30;0.05;;;24.20;50.80;;;;;;4993834;28;20035;-87
2021/06/15 00:12:52;;;;;;;1.60;0.20;;;24.10;50.90;;;;;;5009793;28;20034;-87
2021/06/15 00:15:19;;;;;;;0.13;0.00;;;24.10;50.90;;;;;;5009232;28;20030;-85
2021/06/15 00:17:45;;;;;;;0.20;0.10;;;24.00;50.90;;;;;;4988960;28;20115;-87
2021/06/15 00:20:12;;;;;;;0.80;0.20;;;23.90;50.90;;;;;;4973031;28;20038;-87
2021/06/15 00:22:38;;;;;;;0.22;0.00;;;23.90;50.90;;;;;;4989120;28;20384;-86
2021/06/15 00:25:05;;;;;;;1.75;0.20;;;23.80;50.90;;;;;;4953432;28;20408;-87
2021/06/15 00:27:31;;;;;;;0.55;0.28;;;23.80;50.90;;;;;;4966930;28;20035;-86
2021/06/15 00:29:58;;;;;;;0.90;0.30;;;23.70;50.80;;;;;;4988782;28;20030;-87
2021/06/15 00:32:24;;;;;;;1.30;0.30;;;23.70;50.80;;;;;;4988443;28;20576;-86
2021/06/15 00:34:51;;;;;;;2.45;0.32;;;23.60;50.80;;;;;;4978187;28;20039;-86
2021/06/15 00:37:17;;;;;;;0.70;0.10;;;23.50;50.80;;;;;;5008953;28;20042;-86
2021/06/15 00:39:43;;;;;;;3.03;0.30;;;23.50;50.80;;;;;;4977997;28;20026;-87
2021/06/15 00:42:09;;;;;;;0.32;0.10;;;23.40;50.80;;;;;;4975668;28;20045;-85
2021/06/15 00:44:35;;;;;;;0.15;0.08;;;23.40;50.80;;;;;;4974630;28;20035;-86
2021/06/15 00:47:05;;;;;;;0.57;0.17;;;23.40;50.80;;;;;;4975208;28;20050;-87
2021/06/15 00:49:33;;;;;;;0.20;0.00;;;23.30;50.80;;;;;;4987162;28;20051;-86
2021/06/15 00:51:59;;;;;;;0.03;0.00;;;23.30;50.70;;;;;;4972017;28;20037;-85
2021/06/15 00:54:25;;;;;;;0.38;0.00;;;23.30;50.70;;;;;;4973289;28;20392;-86
2021/06/15 00:56:51;;;;;;;1.20;0.40;;;23.30;50.70;;;;;;4973664;28;20023;-86
2021/06/15 00:59:18;;;;;;;0.15;0.03;;;23.30;50.70;;;;;;4972160;28;20035;-86
2021/06/15 01:01:44;;;;;;;0.10;0.00;;;23.30;50.70;;;;;;4988360;28;20045;-86
2021/06/15 01:04:11;;;;;;;0.40;0.00;;;23.30;50.70;;;;;;4973308;28;20034;-86
2021/06/15 01:06:56;;;;;;;0.60;0.10;;;23.30;50.70;;;;;;4972012;28;20502;-87
2021/06/15 01:09:37;;;;;;;0.10;0.00;;;23.20;50.70;;;;;;4956297;28;20499;-87
2021/06/15 01:12:16;;;;;;;0.05;0.00;;;23.20;50.70;;;;;;4971412;28;20384;-87
2021/06/15 01:14:59;;;;;;;0.70;0.20;;;23.20;50.80;;;;;;4956123;28;20058;-86
2021/06/15 01:17:35;;;;;;;0.47;0.32;;;23.10;50.70;;;;;;4957180;28;20051;-86
2021/06/15 01:20:15;;;;;;;1.80;0.28;;;23.00;50.80;;;;;;4972823;28;20035;-82
2021/06/15 01:23:14;;;;;;;0.43;0.23;;;23.00;50.90;;;;;;4987996;28;20035;-84
2021/06/15 01:25:46;;;;;;;0.15;0.05;;;23.00;50.90;;;;;;4976429;28;20519;-85
2021/06/15 01:28:15;;;;;;;0.50;0.22;;;22.90;50.90;;;;;;4954954;28;20050;-86
2021/06/15 01:31:19;;;;;;;0.70;0.10;;;22.90;51.00;;;;;;4976683;28;20031;-86
2021/06/15 01:33:48;;;;;;;0.22;0.10;;;22.80;51.00;;;;;;4963852;28;20530;-88
2021/06/15 01:36:15;;;;;;;0.80;0.20;;;22.80;51.00;;;;;;4975967;28;20039;-87
2021/06/15 01:38:44;;;;;;;1.25;0.30;;;22.80;51.00;;;;;;4974541;28;20031;-86
2021/06/15 01:41:11;;;;;;;0.10;0.00;;;22.80;51.10;;;;;;4972705;28;20038;-86
2021/06/15 01:43:41;;;;;;;0.17;0.10;;;22.80;51.10;;;;;;4992851;28;20030;-87
2021/06/15 01:46:07;;;;;;;1.83;0.20;;;22.70;51.10;;;;;;5007850;28;20047;-85
2021/06/15 01:48:59;;;;;;;1.27;0.13;;;22.70;51.20;;;;;;4987522;28;20027;-87
2021/06/15 01:51:25;;;;;;;0.73;0.28;;;22.70;51.20;;;;;;4987425;28;20396;-87
2021/06/15 01:53:57;;;;;;;0.15;0.00;;;22.70;51.30;;;;;;4972726;28;20027;-84
2021/06/15 01:56:25;;;;;;;0.10;0.00;;;22.50;51.30;;;;;;4956718;28;20053;-87
2021/06/15 01:58:51;;;;;;;0.20;0.00;;;22.50;51.50;;;;;;4971847;28;20035;-86
2021/06/15 02:01:17;;;;;;;0.90;0.20;;;22.40;51.60;;;;;;4949886;28;20043;-86
2021/06/15 02:03:43;;;;;;;0.65;0.08;;;22.40;51.70;;;;;;4964161;28;20484;-85
2021/06/15 02:06:10;;;;;;;1.55;0.22;;;22.30;51.80;;;;;;4981565;28;20507;-86
2021/06/15 02:08:38;;;;;;;0.25;0.13;;;22.20;51.90;;;;;;4967016;28;20046;-85
2021/06/15 02:11:04;;;;;;;0.20;0.15;;;22.20;52.00;;;;;;4969366;28;20038;-87
2021/06/15 02:13:32;;;;;;;0.38;0.05;;;22.10;52.20;;;;;;4968244;28;20382;-86
2021/06/15 02:15:59;;;;;;;0.65;0.20;;;22.10;52.20;;;;;;4969133;28;20058;-86
2021/06/15 02:18:27;;;;;;;0.28;0.10;;;22.00;52.30;;;;;;4969086;28;20476;-87
2021/06/15 02:20:53;;;;;;;0.40;0.08;;;22.00;52.50;;;;;;4967270;28;20038;-86
2021/06/15 02:23:20;;;;;;;0.40;0.10;;;21.90;52.60;;;;;;4982607;28;20022;-86
2021/06/15 02:25:50;;;;;;;1.58;0.43;;;21.90;52.60;;;;;;4990056;28;20491;-84
2021/06/15 02:28:17;;;;;;;0.03;0.00;;;21.90;52.60;;;;;;4986454;28;20027;-87
2021/06/15 02:30:43;;;;;;;1.20;0.15;;;21.90;52.60;;;;;;4985956;28;20045;-83
2021/06/15 02:33:22;;;;;;;0.05;0.00;;;21.80;52.70;;;;;;4985688;28;20027;-84
2021/06/15 02:35:59;;;;;;;0.45;0.10;;;21.80;52.80;;;;;;4986835;28;20039;-87
2021/06/15 02:38:30;;;;;;;0.60;0.22;;;21.70;52.90;;;;;;4973132;28;20038;-87
2021/06/15 02:41:01;;;;;;;;;;;21.70;52.90;;;;;;4959375;28;20047;-85
2021/06/15 02:43:27;;;;;;;0.13;0.00;;;21.70;52.90;;;;;;5006966;28;19910;-85
2021/06/15 02:45:54;;;;;;;1.23;0.15;;;21.70;52.80;;;;;;4973700;28;20047;-85
2021/06/15 02:48:20;;;;;;;0.95;0.13;;;21.70;52.90;;;;;;4974355;28;20034;-86
2021/06/15 02:50:46;;;;;;;0.32;0.03;;;21.60;52.80;;;;;;4990737;28;20019;-86
2021/06/15 02:53:18;;;;;;;1.15;0.43;;;21.60;53.00;;;;;;4974341;28;20047;-86
2021/06/15 02:55:59;;;;;;;1.58;0.38;;;21.60;53.00;;;;;;4974877;28;20050;-87
2021/06/15 02:58:26;;;;;;;0.68;0.05;;;21.60;53.00;;;;;;4973922;28;20468;-86
2021/06/15 03:00:53;;;;;;;0.50;0.10;;;21.60;53.00;;;;;;4973587;28;20047;-86
2021/06/15 03:03:19;;;;;;;0.50;0.17;;;21.70;53.00;;;;;;4975127;28;20035;-84
2021/06/15 03:05:45;;;;;;;1.75;0.22;;;21.70;53.00;;;;;;4975122;28;20031;-85
2021/06/15 03:08:12;;;;;;;0.35;0.20;;;21.70;53.10;;;;;;4974648;28;20038;-85
2021/06/15 03:10:38;;;;;;;0.40;0.10;;;21.70;53.10;;;;;;4974767;28;20046;-86
2021/06/15 03:13:18;;;;;;;2.63;0.43;;;21.70;53.00;;;;;;4990006;28;20035;-87
2021/06/15 03:15:46;;;;;;;0.47;0.03;;;21.70;53.00;;;;;;4989222;28;20046;-86
2021/06/15 03:18:23;;;;;;;1.55;0.13;;;21.80;53.00;;;;;;4990064;28;20030;-86
2021/06/15 03:20:49;;;;;;;1.17;0.30;;;21.70;53.00;;;;;;4958288;28;20065;-86
2021/06/15 03:23:17;;;;;;;1.00;0.17;;;21.70;53.10;;;;;;4957991;28;20035;-86
2021/06/15 03:25:43;;;;;;;0.65;0.00;;;21.70;53.10;;;;;;4990389;28;20039;-86
2021/06/15 03:28:16;;;;;;;1.83;0.17;;;21.80;53.10;;;;;;4973743;28;20027;-86
2021/06/15 03:30:43;;;;;;;0.40;0.20;;;21.80;53.20;;;;;;4972892;28;20039;-83
2021/06/15 03:33:10;;;;;;;0.90;0.20;;;21.80;53.20;;;;;;4957732;28;20039;-86
2021/06/15 03:35:39;;;;;;;0.32;0.00;;;21.70;53.20;;;;;;4957050;28;20035;-85
2021/06/15 03:38:05;;;;;;;0.17;0.00;;;21.70;53.30;;;;;;4973848;28;20508;-86
2021/06/15 03:40:34;;;;;;;0.28;0.20;;;21.70;53.30;;;;;;4956783;28;20050;-87
2021/06/15 03:43:00;;;;;;;0.22;0.10;;;21.70;53.40;;;;;;4954083;28;20043;-85
2021/06/15 03:45:28;;;;;;;0.35;0.00;;;21.70;53.40;;;;;;4970424;28;20053;-86
2021/06/15 03:47:55;;;;;;;0.82;0.20;;;21.60;53.40;;;;;;4972510;28;20495;-87
2021/06/15 03:50:22;;;;;;;0.20;0.13;;;21.60;53.50;;;;;;4973548;28;20035;-85
2021/06/15 03:52:50;;;;;;;0.20;0.10;;;21.50;53.50;;;;;;5017948;28;20478;-83
2021/06/15 03:55:17;;;;;;;0.20;0.00;;;21.50;53.60;;;;;;4977730;28;20043;-86
2021/06/15 03:57:43;;;;;;;0.45;0.20;;;21.50;53.60;;;;;;4977349;28;20488;-86
2021/06/15 04:00:12;;;;;;;0.52;0.10;;;21.50;53.60;;;;;;4976642;28;20030;-86
2021/06/15 04:02:39;;;;;;;1.17;0.35;;;21.40;53.70;;;;;;4973189;28;20388;-86
2021/06/15 04:05:06;;;;;;;1.67;0.10;;;21.40;53.70;;;;;;4973299;28;20038;-86
2021/06/15 04:07:33;;;;;;;0.77;0.10;;;21.40;53.80;;;;;;4971637;28;20034;-86
2021/06/15 04:09:59;;;;;;;3.65;0.05;;;21.40;53.80;;;;;;4973178;28;20503;-85
2021/06/15 04:12:25;;;;;;;0.45;0.10;;;21.40;53.80;;;;;;4972905;28;20027;-86
2021/06/15 04:14:51;;;;;;;0.43;0.10;;;21.40;53.80;;;;;;4956715;28;20526;-86
2021/06/15 04:17:21;;;;;;;3.35;0.40;;;21.40;53.70;;;;;;4956446;28;20051;-86
2021/06/15 04:19:49;;;;;;;0.30;0.13;;;21.50;53.80;;;;;;4957580;28;20042;-85
2021/06/15 04:22:15;;;;;;;1.20;0.45;;;21.50;53.70;;;;;;4972782;28;20484;-86
2021/06/15 04:24:45;;;;;;;0.77;0.17;;;21.50;53.60;;;;;;4972728;28;20054;-85
2021/06/15 04:27:11;;;;;;;0.55;0.03;;;21.50;53.60;;;;;;4972365;28;20019;-78
2021/06/15 04:29:37;;;;;;;3.70;0.43;;;21.60;53.70;;;;;;4972791;28;20464;-86
2021/06/15 04:32:08;;;;;;;0.65;0.20;;;21.60;53.70;;;;;;4987041;28;20376;-85
2021/06/15 04:34:35;;;;;;;0.40;0.10;;;21.60;53.70;;;;;;5007980;28;20046;-83
2021/06/15 04:37:03;;;;;;;2.15;0.65;;;21.60;53.70;;;;;;4992611;28;20385;-85
2021/06/15 04:39:31;;;;;;;0.73;0.20;;;21.60;53.70;;;;;;4993072;28;20038;-86
2021/06/15 04:41:58;;;;;;;0.60;0.10;;;21.70;53.70;;;;;;4992309;28;20022;-82
2021/06/15 04:44:29;;;;;;;0.30;0.10;;;21.70;53.60;;;;;;4972489;28;20141;-85
2021/06/15 04:47:05;;;;;;;0.90;0.10;;;21.70;53.60;;;;;;4975301;28;20515;-86
2021/06/15 04:49:41;;;;;;;2.05;0.20;;;21.70;53.70;;;;;;4972811;28;20043;-86
2021/06/15 04:52:07;;;;;;;0.73;0.25;;;21.70;53.70;;;;;;4972358;28;20038;-86
2021/06/15 04:54:39;;;;;;;1.17;0.55;;;21.80;53.60;;;;;;4988328;28;20035;-85
2021/06/15 04:57:09;;;;;;;1.25;0.15;;;21.80;53.60;;;;;;4971866;28;20484;-85
2021/06/15 04:59:35;;;;;;;0.32;0.10;;;21.80;53.60;;;;;;4973555;28;20058;-85
2021/06/15 05:02:02;;;;;;;0.40;0.15;;;21.90;53.50;;;;;;4986289;28;20037;-80
2021/06/15 05:04:28;;;;;;;0.10;0.00;;;22.00;53.40;;;;;;5009439;28;20050;-85
2021/06/15 05:06:54;;;;;;;0.20;0.00;;;22.20;53.20;;;;;;5009104;28;20472;-85
2021/06/15 05:09:25;;;;;;;3.95;0.50;;;22.30;53.10;;;;;;4992351;28;20046;-85
2021/06/15 05:11:52;;;;;;;0.85;0.40;;;22.50;52.90;;;;;;5008005;28;20030;-85
2021/06/15 05:14:19;;;;;;;0.32;0.10;;;22.60;52.80;;;;;;4956011;28;20089;-85
2021/06/15 05:16:45;;;;;;;0.73;0.35;;;22.70;52.60;;;;;;4986964;28;20038;-86
2021/06/15 05:19:11;;;;;;;0.20;0.10;;;22.80;52.60;;;;;;4961079;28;20043;-85
2021/06/15 05:21:41;;;;;;;0.10;0.00;;;22.80;52.50;;;;;;4976256;28;20034;-84
2021/06/15 05:24:11;;;;;;;0.10;0.00;;;22.90;52.30;;;;;;4976082;28;20038;-85
2021/06/15 05:26:38;;;;;;;1.88;0.60;;;23.10;52.20;;;;;;4973828;28;20035;-85
2021/06/15 05:29:04;;;;;;;0.30;0.10;;;23.10;52.10;;;;;;4958063;28;20035;-85
2021/06/15 05:31:30;;;;;;;0.30;0.17;;;23.30;52.00;;;;;;4977476;28;20039;-85
2021/06/15 05:33:56;;;;;;;0.55;0.10;;;23.40;51.80;;;;;;4971888;28;20392;-83
2021/06/15 05:36:22;;;;;;;0.30;0.10;;;23.50;51.70;;;;;;4971794;28;20039;-84
2021/06/15 05:38:48;;;;;;;1.40;0.10;;;23.60;51.60;;;;;;4973109;28;20386;-84
2021/06/15 05:41:14;;;;;;;1.17;0.35;;;23.60;51.50;;;;;;4971596;28;20050;-83
2021/06/15 05:43:40;;;;;;;0.00;0.00;;;23.80;51.50;;;;;;4988674;28;20457;-84
2021/06/15 05:46:06;;;;;;;0.30;0.10;;;23.80;51.30;;;;;;4981081;28;20053;-85
2021/06/15 05:48:32;;;;;;;0.30;0.10;;;23.90;51.30;;;;;;4982942;28;20046;-85
2021/06/15 05:50:58;;;;;;;1.40;0.20;;;23.90;51.30;;;;;;4975946;28;20026;-85
2021/06/15 05:53:26;;;;;;;0.90;0.32;;;23.90;51.30;;;;;;4972427;28;20502;-85
2021/06/15 05:55:54;;;;;;;0.93;0.30;;;24.00;51.20;;;;;;4975388;28;20042;-85
2021/06/15 05:58:21;;;;;;;0.43;0.10;;;24.10;51.00;;;;;;4977564;28;20050;-84
2021/06/15 06:00:49;;;;;;;1.70;0.20;;;24.20;50.90;;;;;;4979157;28;20039;-85
2021/06/15 06:03:21;;;;;;;10.77;0.20;;;24.20;50.80;;;;;;4975263;28;20027;-85
2021/06/15 06:08:32;;;;;;;4.18;0.60;;;24.20;50.90;;;;;;4966546;28;20034;-86
2021/06/15 06:10:58;;;;;;;1.38;0.13;;;24.20;50.90;;;;;;4975026;28;20057;-84
2021/06/15 06:13:24;;;;;;;1.55;0.20;;;24.30;50.80;;;;;;4976786;28;20029;-85
2021/06/15 06:15:51;;;;;;;0.10;0.00;;;24.30;50.80;;;;;;4981147;28;20038;-86
2021/06/15 06:18:17;;;;;;;0.22;0.13;;;24.20;50.80;;;;;;4988348;28;20099;-85
2021/06/15 06:20:43;;;;;;;0.85;0.20;;;24.20;50.80;;;;;;4959398;28;20047;-85
2021/06/15 06:23:09;;;;;;;0.65;0.10;;;24.20;50.80;;;;;;4976304;28;20030;-85
2021/06/15 06:25:35;;;;;;;0.10;0.00;;;24.30;50.80;;;;;;5012039;28;20483;-85
2021/06/15 06:28:03;;;;;;;0.22;0.10;;;24.40;50.70;;;;;;4995050;28;20034;-86
2021/06/15 06:30:30;;;;;;;0.08;0.00;;;24.40;50.60;;;;;;5010723;28;20038;-86
2021/06/15 06:32:56;;;;;;;0.73;0.30;;;24.50;50.50;;;;;;4975034;28;20075;-84
2021/06/15 06:35:22;;;;;;;7.78;0.80;;;24.60;50.30;;;;;;4959023;28;20047;-84
2021/06/15 06:37:48;;;;;;;0.35;0.15;;;24.60;50.30;;;;;;4975939;28;20039;-84
2021/06/15 06:40:15;;;;;;;0.20;0.10;;;24.60;50.90;;;;;;4958852;28;20043;-85
2021/06/15 06:42:41;;;;;;;0.65;0.28;;;24.70;50.20;;;;;;4974549;28;20027;-83
2021/06/15 06:45:08;;;;;;;0.40;0.10;;;24.80;50.00;;;;;;4975899;28;20399;-84
2021/06/15 06:47:34;;;;;;;0.30;0.00;;;24.90;49.90;;;;;;5006412;28;20049;-85
2021/06/15 06:50:00;;;;;;;0.30;0.10;;;25.00;49.70;;;;;;4978291;28;20031;-86
2021/06/15 06:52:26;;;;;;;0.40;0.20;;;25.10;49.50;;;;;;4994910;28;20035;-86
2021/06/15 06:54:52;;;;;;;1.02;0.17;;;25.20;49.50;;;;;;4979915;28;20118;-85
2021/06/15 06:57:18;;;;;;;0.00;0.00;;;25.30;49.40;;;;;;4978414;28;20036;-86
2021/06/15 06:59:44;;;;;;;0.50;0.10;;;25.40;49.20;;;;;;4961516;28;20038;-86
2021/06/15 07:02:10;;;;;;;0.10;0.00;;;25.60;49.00;;;;;;4976431;28;20031;-86
2021/06/15 07:04:36;;;;;;;0.43;0.10;;;25.80;48.90;;;;;;4990964;28;20031;-86
2021/06/15 07:07:03;;;;;;;1.23;0.10;;;25.80;48.70;;;;;;4974856;28;20038;-86
2021/06/15 07:09:29;;;;;;;0.50;0.10;;;25.90;48.60;;;;;;4973034;28;20026;-85
2021/06/15 07:11:56;;;;;;;0.55;0.28;;;26.00;48.50;;;;;;4975275;28;20488;-84
2021/06/15 07:14:22;;;;;;;0.82;0.10;;;26.10;48.40;;;;;;4975476;28;20042;-85
2021/06/15 07:16:48;;;;;;;0.45;0.20;;;26.10;48.40;;;;;;4974203;28;20038;-84
2021/06/15 07:19:14;;;;;;;0.40;0.10;;;26.30;48.20;;;;;;4955030;28;20039;-86
2021/06/15 07:21:40;;;;;;;0.10;0.00;;;26.30;48.20;;;;;;4984992;28;20042;-86
2021/06/15 07:24:06;;;;;;;2.15;0.20;;;26.30;48.20;;;;;;4990047;28;20420;-87
2021/06/15 07:26:33;;;;;;;0.10;0.00;;;26.30;48.00;;;;;;4975162;28;20034;-86
2021/06/15 07:28:59;;;;;;;0.00;0.00;;;26.40;47.90;;;;;;4973930;28;20031;-86
2021/06/15 07:31:25;;;;;;;0.15;0.00;;;26.50;47.70;;;;;;4989942;28;20031;-86
2021/06/15 07:33:51;;;;;;;0.55;0.10;;;26.50;47.70;;;;;;4973615;28;20046;-86
2021/06/15 07:36:18;;;;;;;1.20;0.40;;;26.50;47.70;;;;;;4973321;28;20493;-86
2021/06/15 07:38:44;;;;;;;0.40;0.15;;;26.60;47.60;;;;;;4973715;28;20039;-87
2021/06/15 07:41:10;;;;;;;0.50;0.10;;;26.70;47.50;;;;;;4973589;28;20027;-85
2021/06/15 07:43:37;;;;;;;0.03;0.00;;;26.70;47.40;;;;;;4990332;28;20031;-86
2021/06/15 07:46:04;;;;;;;0.43;0.20;;;26.80;47.40;;;;;;4981987;28;20069;-86
2021/06/15 07:48:30;;;;;;;0.10;0.00;;;26.90;47.20;;;;;;4966987;28;20042;-87
2021/06/15 07:50:56;;;;;;;0.35;0.10;;;27.10;47.20;;;;;;4960220;28;20034;-85
2021/06/15 07:53:22;;;;;;;0.93;0.10;;;27.20;47.00;;;;;;4974679;28;20034;-86
2021/06/15 07:55:48;;;;;;;0.20;0.10;;;27.30;46.80;;;;;;4962112;28;20400;-86
2021/06/15 07:58:14;;;;;;;0.08;0.00;;;27.50;46.60;;;;;;4958165;28;20472;-87
2021/06/15 08:00:41;;;;;;;0.50;0.20;;;27.60;46.50;;;;;;4987165;28;20030;-86
2021/06/15 08:03:07;;;;;;;4.15;0.65;;;27.80;46.30;;;;;;4973205;28;20026;-86
2021/06/15 08:05:33;;;;;;;0.60;0.13;;;27.90;46.10;;;;;;4973939;28;20034;-87
2021/06/15 08:08:00;;;;;;;0.68;0.10;;;28.00;46.00;;;;;;4973177;28;20034;-86
2021/06/15 08:10:26;;;;;;;0.10;0.00;;;28.10;45.90;;;;;;4973587;28;20038;-86
2021/06/15 08:12:53;;;;;;;0.28;0.10;;;28.10;45.80;;;;;;4973123;28;20039;-87
2021/06/15 08:15:20;;;;;;;0.38;0.20;;;28.20;45.70;;;;;;4991028;28;20026;-87
2021/06/15 08:17:46;;;;;;;0.80;0.10;;;28.40;45.50;;;;;;4988075;28;20034;-86
2021/06/15 08:20:12;;;;;;;0.40;0.20;;;28.60;45.30;;;;;;4973393;28;20043;-87
2021/06/15 08:22:39;;;;;;;0.20;0.00;;;28.70;45.20;;;;;;4977271;28;20046;-87
2021/06/15 08:25:05;;;;;;;0.38;0.00;;;28.90;45.00;;;;;;4976986;28;20027;-86
2021/06/15 08:27:34;;;;;;;0.28;0.00;;;29.00;44.70;;;;;;4976896;28;20039;-87
2021/06/15 08:30:01;;;;;;;0.03;0.00;;;29.20;44.50;;;;;;4978249;28;20372;-87
2021/06/15 08:32:27;;;;;;;0.00;0.00;;;29.30;44.30;;;;;;4972011;28;20042;-87
2021/06/15 08:34:53;;;;;;;0.20;0.00;;;29.40;44.30;;;;;;4972601;28;20472;-86
2021/06/15 08:37:19;;;;;;;1.90;0.65;;;29.40;44.20;;;;;;4988866;28;20046;-86
2021/06/15 08:39:45;;;;;;;0.20;0.10;;;29.40;44.10;;;;;;4973660;28;20027;-86
2021/06/15 08:42:15;;;;;;;0.22;0.13;;;29.30;44.10;;;;;;4973625;28;20034;-86
2021/06/15 08:44:42;;;;;;;0.20;0.05;;;29.40;44.10;;;;;;4972503;28;20382;-84
2021/06/15 08:47:08;;;;;;;0.00;0.00;;;29.50;44.00;;;;;;4970802;28;20411;-86
2021/06/15 08:49:34;;;;;;;0.20;0.10;;;29.70;43.70;;;;;;4978094;28;20034;-87
2021/06/15 08:52:01;;;;;;;0.68;0.25;;;29.80;43.50;;;;;;4976436;28;20030;-87
2021/06/15 08:54:27;;;;;;;0.52;0.10;;;29.80;43.40;;;;;;4976419;28;20495;-87
2021/06/15 08:56:53;;;;;;;2.42;0.08;;;29.90;43.30;;;;;;4960479;28;20038;-87
2021/06/15 08:59:29;;;;;;;0.20;0.10;;;29.90;43.20;;;;;;4972309;28;20207;-87
2021/06/15 09:01:57;;;;;;;0.80;0.10;;;30.00;43.10;;;;;;5016408;28;20476;-86
2021/06/15 09:04:23;;;;;;;0.82;0.20;;;30.10;43.10;;;;;;4992571;28;20035;-87
2021/06/15 09:06:50;;;;;;;0.85;0.15;;;30.20;42.90;;;;;;5008885;28;20468;-86
2021/06/15 09:09:16;;;;;;;0.52;0.10;;;30.50;42.90;;;;;;4992376;28;20035;-87
2021/06/15 09:11:55;;;;;;;0.08;0.00;;;30.70;42.50;;;;;;4974721;28;20030;-87
2021/06/15 09:14:46;;;;;;;2.13;0.20;;;30.80;42.30;;;;;;4956827;28;20030;-85
2021/06/15 09:17:28;;;;;;;0.73;0.30;;;31.10;42.20;;;;;;4987079;28;20039;-87
2021/06/15 09:19:59;;;;;;;0.38;0.00;;;31.20;41.90;;;;;;4985701;28;20038;-85
2021/06/15 09:22:28;;;;;;;0.30;0.03;;;31.30;41.90;;;;;;4991758;28;20026;-87
2021/06/15 09:24:54;;;;;;;0.08;0.00;;;31.40;41.90;;;;;;4992361;28;20039;-87
2021/06/15 09:27:31;;;;;;;1.13;0.20;;;31.40;41.80;;;;;;4977148;28;20424;-86
2021/06/15 09:29:58;;;;;;;0.10;0.10;;;31.60;41.70;;;;;;4976196;28;20026;-87
2021/06/15 09:32:27;;;;;;;1.83;0.73;;;31.70;41.60;;;;;;4971639;28;20041;-87
2021/06/15 09:34:56;;;;;;;0.55;0.10;;;31.90;41.50;;;;;;4976353;28;20026;-86
2021/06/15 09:37:37;;;;;;;0.38;0.10;;;31.80;41.40;;;;;;4976965;28;20047;-86
2021/06/15 09:40:16;;;;;;;0.30;0.00;;;31.70;41.60;;;;;;4992271;28;20042;-87
2021/06/15 09:43:02;;;;;;;13.65;0.25;;;31.50;41.80;;;;;;4976735;28;20035;-86
2021/06/15 09:45:42;;;;;;;0.35;0.10;;;31.60;41.70;;;;;;4978720;28;20039;-86
2021/06/15 09:48:27;;;;;;;0.57;0.15;;;31.60;41.50;;;;;;4988818;28;20026;-87
2021/06/15 09:50:57;;;;;;;0.60;0.17;;;31.80;41.60;;;;;;4980890;28;20027;-88
2021/06/15 09:53:35;;;;;;;0.43;0.13;;;32.00;41.50;;;;;;4960741;28;20037;-87
2021/06/15 09:56:05;;;;;;;0.30;0.00;;;32.10;41.30;;;;;;4978153;28;20033;-87
2021/06/15 09:58:51;;;;;;;0.30;0.00;;;32.50;41.00;;;;;;4981300;28;20039;-87
2021/06/15 10:01:49;;;;;;;0.22;0.00;;;32.50;40.60;;;;;;4957664;28;20055;-87
2021/06/15 10:04:23;;;;;;;0.10;0.00;;;32.50;40.80;;;;;;4939880;29;20047;-85
2021/06/15 10:06:54;;;;;;;0.47;0.20;;;32.40;40.80;;;;;;4924864;29;20044;-87
2021/06/15 10:09:33;;;;;;;0.30;0.00;;;32.30;40.90;;;;;;4924322;29;20131;-87
2021/06/15 10:12:04;;;;;;;0.00;0.00;;;32.30;40.90;;;;;;4940029;29;20027;-87
2021/06/15 10:14:31;;;;;;;1.25;0.20;;;32.30;40.90;;;;;;4921019;29;20039;-87
2021/06/15 10:17:00;;;;;;;0.60;0.10;;;32.30;40.80;;;;;;4933336;29;20031;-86
2021/06/15 10:19:27;;;;;;;0.25;0.00;;;32.30;40.70;;;;;;4961042;28;20035;-87
2021/06/15 10:21:54;;;;;;;0.20;0.00;;;32.40;40.60;;;;;;4969840;28;20034;-87
2021/06/15 10:24:24;;;;;;;0.10;0.00;;;32.50;40.60;;;;;;4951793;29;20046;-87
2021/06/15 10:26:50;;;;;;;0.30;0.08;;;32.50;40.60;;;;;;4944074;28;20054;-87
2021/06/15 10:29:16;;;;;;;0.30;0.10;;;32.70;40.50;;;;;;4939304;29;20039;-87
2021/06/15 10:31:43;;;;;;;0.10;0.00;;;32.90;40.20;;;;;;4943263;28;20042;-87
2021/06/15 10:34:10;;;;;;;0.40;0.10;;;32.90;40.00;;;;;;4926913;29;20205;-87
2021/06/15 10:36:36;;;;;;;1.80;0.30;;;32.80;40.10;;;;;;4958630;28;20520;-87
2021/06/15 10:39:02;;;;;;;0.10;0.00;;;32.90;40.20;;;;;;4943738;28;20058;-87
2021/06/15 10:41:29;;;;;;;0.55;0.20;;;32.90;40.10;;;;;;4974769;28;20034;-87
2021/06/15 10:44:00;;;;;;;0.57;0.00;;;32.80;40.10;;;;;;4958824;28;20047;-87
2021/06/15 10:46:36;;;;;;;0.10;0.08;;;32.70;40.20;;;;;;4973435;28;20053;-87
2021/06/15 10:49:04;;;;;;;0.10;0.00;;;32.90;40.30;;;;;;4990274;28;20523;-87
2021/06/15 10:51:36;;;;;;;0.10;0.00;;;33.00;40.20;;;;;;4974565;28;20476;-87
2021/06/15 10:54:25;;;;;;;0.88;0.15;;;33.20;40.10;;;;;;4974384;28;20035;-87
2021/06/15 10:57:13;;;;;;;0.45;0.10;;;33.20;39.90;;;;;;4960314;28;20042;-87
2021/06/15 11:00:13;;;;;;;0.70;0.00;;;33.20;39.90;;;;;;4962322;28;20034;-87
2021/06/15 11:02:40;;;;;;;0.40;0.10;;;33.30;39.90;;;;;;4978476;28;20043;-87
2021/06/15 11:05:38;;;;;;;2.60;0.35;;;33.20;39.80;;;;;;4974326;28;20492;-87
2021/06/15 11:08:26;;;;;;;0.35;0.15;;;33.20;40.00;;;;;;4975522;28;20031;-86
2021/06/15 11:11:05;;;;;;;0.30;0.10;;;33.10;39.90;;;;;;4972245;28;20038;-87
2021/06/15 11:13:47;;;;;;;0.67;0.13;;;33.10;40.00;;;;;;4974412;28;20645;-87
2021/06/15 11:16:19;;;;;;;0.08;0.00;;;33.30;39.80;;;;;;4989747;28;20393;-87
2021/06/15 11:18:45;;;;;;;0.05;0.00;;;33.40;39.60;;;;;;4975084;28;20377;-87
2021/06/15 11:21:25;;;;;;;0.77;0.05;;;33.50;39.60;;;;;;4975112;28;20392;-87
2021/06/15 11:24:12;;;;;;;0.10;0.00;;;33.40;39.60;;;;;;4974087;28;20495;-87
2021/06/15 11:26:38;;;;;;;0.25;0.00;;;33.20;39.70;;;;;;4963295;28;20519;-87
2021/06/15 11:29:04;;;;;;;5.78;0.20;;;33.10;39.90;;;;;;4973553;28;20042;-87
2021/06/15 11:31:31;;;;;;;0.20;0.10;;;33.30;39.90;;;;;;4974084;28;20034;-87
2021/06/15 11:34:14;;;;;;;0.50;0.10;;;33.30;39.80;;;;;;4973793;28;20043;-87
2021/06/15 11:36:46;;;;;;;0.90;0.13;;;33.40;39.70;;;;;;4974691;28;20400;-86
2021/06/15 11:39:22;;;;;;;0.20;0.00;;;33.40;39.70;;;;;;4973554;28;20038;-87
2021/06/15 11:42:06;;;;;;;0.15;0.00;;;33.40;39.70;;;;;;4974673;28;20034;-86
2021/06/15 11:45:05;;;;;;;0.03;0.00;;;33.30;39.60;;;;;;4960635;28;20480;-86
2021/06/15 11:48:16;;;;;;;0.20;0.00;;;33.30;39.70;;;;;;4973743;28;20051;-87
2021/06/15 11:50:46;;;;;;;0.08;0.00;;;33.20;39.70;;;;;;4972581;28;20046;-87
2021/06/15 11:53:18;;;;;;;0.15;0.00;;;33.20;39.70;;;;;;4972302;28;20050;-87
2021/06/15 11:55:49;;;;;;;0.30;0.10;;;33.10;39.70;;;;;;4988055;28;20035;-87
2021/06/15 11:58:16;;;;;;;0.70;0.08;;;33.10;39.70;;;;;;4971720;28;20480;-86
2021/06/15 12:00:44;;;;;;;0.63;0.15;;;33.20;39.80;;;;;;4955622;28;20047;-87
2021/06/15 12:03:17;;;;;;;0.10;0.00;;;33.30;39.70;;;;;;4971997;28;20019;-87
2021/06/15 12:05:44;;;;;;;0.85;0.15;;;33.20;39.50;;;;;;4972103;28;20046;-85
2021/06/15 12:08:10;;;;;;;0.50;0.17;;;33.30;39.60;;;;;;4956067;28;20027;-86
2021/06/15 12:10:37;;;;;;;0.65;0.20;;;33.30;39.50;;;;;;4988777;28;20078;-87
2021/06/15 12:13:17;;;;;;;0.65;0.00;;;33.30;39.50;;;;;;4971611;28;20852;-87
2021/06/15 12:15:48;;;;;;;;;;;33.20;39.60;;;;;;4971942;28;20054;-87
2021/06/15 12:18:22;;;;;;;0.10;0.00;;;33.10;39.70;;;;;;4971844;28;20355;-86
2021/06/15 12:20:50;;;;;;;0.68;0.03;;;33.10;39.80;;;;;;4971937;28;20039;-87
2021/06/15 12:23:29;;;;;;;0.20;0.05;;;33.10;39.70;;;;;;4988039;28;20548;-87
2021/06/15 12:26:16;;;;;;;0.20;0.00;;;33.00;39.70;;;;;;4976965;28;20039;-86
2021/06/15 12:28:51;;;;;;;0.50;0.10;;;32.90;39.90;;;;;;4974407;28;20364;-86
2021/06/15 12:31:20;;;;;;;0.45;0.10;;;32.80;40.00;;;;;;4983396;28;20049;-86
2021/06/15 12:33:48;;;;;;;0.60;0.13;;;32.80;40.00;;;;;;4981050;28;20034;-87
2021/06/15 12:36:19;;;;;;;1.08;0.10;;;33.10;39.80;;;;;;4960008;28;20035;-86
2021/06/15 12:38:46;;;;;;;0.20;0.00;;;33.20;39.60;;;;;;4975638;28;20030;-87
2021/06/15 12:41:14;;;;;;;0.03;0.00;;;33.40;39.40;;;;;;4957570;28;20047;-86
2021/06/15 12:43:40;;;;;;;0.20;0.10;;;33.40;39.40;;;;;;5009631;28;20023;-87
2021/06/15 12:46:18;;;;;;;1.05;0.00;;;33.40;39.30;;;;;;4972876;28;20063;-87
2021/06/15 12:49:20;;;;;;;0.40;0.10;;;33.40;39.40;;;;;;4984294;28;20035;-86
2021/06/15 12:51:53;;;;;;;0.50;0.10;;;33.60;39.40;;;;;;4970507;28;20492;-86
2021/06/15 12:54:30;;;;;;;0.30;0.00;;;33.80;39.20;;;;;;4972382;28;20030;-86
2021/06/15 12:57:00;;;;;;;0.10;0.00;;;34.00;38.90;;;;;;4972050;28;20033;-86
2021/06/15 12:59:26;;;;;;;0.47;0.00;;;34.10;38.80;;;;;;4972407;28;20030;-87
2021/06/15 13:01:54;;;;;;;0.47;0.20;;;34.20;38.70;;;;;;4986964;28;20041;-86
2021/06/15 13:04:21;;;;;;;0.65;0.10;;;34.20;38.70;;;;;;4977822;28;20395;-86